createdAt,value
2023-02-11T00:00:47.095Z,1.53
2023-02-11T00:01:48.729Z,1.54
2023-02-11T00:02:50.356Z,1.70
2023-02-11T00:03:52.294Z,1.67
2023-02-11T00:04:53.895Z,1.61
2023-02-11T00:06:02.140Z,1.45
2023-02-11T00:07:05.896Z,1.43
2023-02-11T00:08:07.641Z,1.35
2023-02-11T00:09:10.157Z,1.37
2023-02-11T00:10:11.715Z,1.41
2023-02-11T00:11:14.948Z,1.64
2023-02-11T00:12:19.596Z,1.58
2023-02-11T00:13:21.542Z,1.80
2023-02-11T00:14:23.578Z,1.64
2023-02-11T00:15:25.124Z,1.75
2023-02-11T00:16:26.741Z,1.61
2023-02-11T00:17:28.685Z,1.66
2023-02-11T00:18:30.516Z,1.61
2023-02-11T00:19:32.269Z,1.45
2023-02-11T00:20:34.083Z,1.36
2023-02-11T00:21:38.544Z,1.32
2023-02-11T00:22:40.198Z,1.74
2023-02-11T00:23:42.097Z,1.60
2023-02-11T00:24:55.063Z,1.19
2023-02-11T00:25:56.789Z,1.33
2023-02-11T00:26:58.463Z,1.51
2023-02-11T00:28:00.776Z,1.87
2023-02-11T00:29:04.748Z,1.92
2023-02-11T00:30:08.922Z,1.92
2023-02-11T00:31:10.959Z,1.58
2023-02-11T00:32:12.610Z,2.25
2023-02-11T00:33:14.691Z,2.03
2023-02-11T00:34:16.266Z,2.11
2023-02-11T00:35:17.910Z,2.14
2023-02-11T00:36:21.504Z,2.14
2023-02-11T00:37:23.028Z,2.31
2023-02-11T00:38:25.063Z,2.24
2023-02-11T00:39:27.118Z,2.28
2023-02-11T00:40:28.697Z,2.21
2023-02-11T00:41:30.332Z,2.14
2023-02-11T00:42:31.938Z,2.09
2023-02-11T00:43:33.481Z,2.18
2023-02-11T00:44:35.493Z,2.05
2023-02-11T00:45:37.015Z,2.02
2023-02-11T00:46:38.600Z,2.01
2023-02-11T00:47:40.190Z,2.08
2023-02-11T00:48:41.777Z,2.09
2023-02-11T00:49:43.291Z,2.06
2023-02-11T00:50:44.821Z,2.09
2023-02-11T00:51:46.448Z,1.87
2023-02-11T00:52:47.992Z,2.06
2023-02-11T00:53:49.575Z,1.92
2023-02-11T00:54:51.174Z,1.85
2023-02-11T00:55:52.776Z,1.94
2023-02-11T00:56:54.360Z,2.00
2023-02-11T00:57:55.947Z,1.89
2023-02-11T00:58:57.702Z,1.75
2023-02-11T00:59:59.482Z,1.65
2023-02-11T01:01:01.055Z,1.44
2023-02-11T01:02:03.130Z,1.52
2023-02-11T01:03:04.774Z,1.43
2023-02-11T01:04:06.381Z,1.33
2023-02-11T01:05:08.332Z,1.23
2023-02-11T01:06:10.401Z,1.42
2023-02-11T01:07:11.932Z,1.34
2023-02-11T01:08:13.546Z,1.48
2023-02-11T01:09:15.064Z,1.35
2023-02-11T01:10:16.802Z,1.45
2023-02-11T01:11:19.677Z,1.35
2023-02-11T01:12:21.341Z,1.55
2023-02-11T01:13:23.130Z,1.52
2023-02-11T01:14:24.758Z,1.42
2023-02-11T01:15:26.525Z,1.52
2023-02-11T01:16:28.662Z,1.43
2023-02-11T01:17:30.213Z,1.44
2023-02-11T01:18:31.764Z,1.39
2023-02-11T01:19:33.327Z,1.35
2023-02-11T01:20:34.936Z,0.88
2023-02-11T01:21:36.944Z,1.11
2023-02-11T01:22:39.657Z,1.12
2023-02-11T01:23:41.466Z,1.21
2023-02-11T01:24:43.169Z,1.05
2023-02-11T01:25:47.612Z,1.26
2023-02-11T01:26:49.149Z,1.42
2023-02-11T01:27:50.666Z,1.50
2023-02-11T01:28:52.867Z,1.55
2023-02-11T01:29:54.410Z,1.72
2023-02-11T01:30:56.158Z,1.64
2023-02-11T01:32:01.046Z,1.62
2023-02-11T01:33:02.704Z,1.56
2023-02-11T01:34:04.381Z,1.77
2023-02-11T01:35:06.675Z,1.59
2023-02-11T01:36:08.507Z,1.55
2023-02-11T01:37:10.036Z,1.46
2023-02-11T01:38:16.380Z,1.36
2023-02-11T01:39:18.001Z,1.19
2023-02-11T01:40:19.592Z,1.03
2023-02-11T01:41:21.283Z,0.89
2023-02-11T01:42:23.181Z,0.99
2023-02-11T01:43:25.254Z,0.95
2023-02-11T01:44:29.369Z,1.04
2023-02-11T01:45:49.120Z,1.14
2023-02-11T01:46:51.025Z,1.05
2023-02-11T01:47:52.565Z,0.81
2023-02-11T01:49:10.826Z,0.81
2023-02-11T01:50:12.524Z,0.90
2023-02-11T01:51:20.559Z,0.96
2023-02-11T01:52:25.870Z,1.01
2023-02-11T01:53:47.249Z,1.15
2023-02-11T01:55:12.293Z,1.16
2023-02-11T01:56:32.690Z,1.19
2023-02-11T01:57:35.044Z,1.17
2023-02-11T01:58:36.740Z,1.05
2023-02-11T02:00:01.559Z,1.08
2023-02-11T02:01:03.379Z,1.20
2023-02-11T02:02:07.734Z,1.13
2023-02-11T02:03:20.346Z,0.91
2023-02-11T02:04:22.157Z,0.90
2023-02-11T02:05:35.301Z,0.92
2023-02-11T02:07:03.887Z,1.21
2023-02-11T02:08:13.962Z,1.22
2023-02-11T02:09:27.056Z,1.12
2023-02-11T02:10:28.664Z,1.32
2023-02-11T02:11:30.208Z,1.42
2023-02-11T02:12:31.734Z,1.55
2023-02-11T02:13:34.068Z,1.50
2023-02-11T02:14:41.881Z,1.54
2023-02-11T02:15:48.393Z,1.56
2023-02-11T02:16:50.113Z,1.62
2023-02-11T02:17:59.333Z,1.53
2023-02-11T02:19:05.760Z,1.83
2023-02-11T02:20:30.038Z,1.78
2023-02-11T02:22:10.435Z,1.71
2023-02-11T02:23:27.125Z,1.64
2023-02-11T02:24:48.796Z,1.62
2023-02-11T02:25:52.913Z,1.62
2023-02-11T02:27:16.246Z,1.42
2023-02-11T02:28:48.567Z,1.47
2023-02-11T02:30:09.326Z,1.69
2023-02-11T02:31:28.961Z,1.68
2023-02-11T02:33:25.094Z,1.79
2023-02-11T02:34:32.734Z,1.88
2023-02-11T02:35:43.395Z,1.87
2023-02-11T02:36:54.702Z,1.76
2023-02-11T02:38:08.129Z,1.60
2023-02-11T02:39:20.599Z,1.66
2023-02-11T02:40:25.676Z,1.59
2023-02-11T02:41:29.094Z,1.65
2023-02-11T02:42:30.611Z,1.65
2023-02-11T02:43:32.107Z,1.71
2023-02-11T02:44:33.682Z,1.55
2023-02-11T02:45:35.194Z,1.49
2023-02-11T02:46:37.069Z,1.43
2023-02-11T02:47:38.675Z,1.42
2023-02-11T02:48:40.175Z,1.42
2023-02-11T02:49:41.689Z,1.39
2023-02-11T02:50:43.260Z,1.31
2023-02-11T02:52:05.549Z,1.12
2023-02-11T02:54:07.115Z,0.97
2023-02-11T02:55:41.387Z,1.22
2023-02-11T02:56:51.672Z,1.36
2023-02-11T02:58:11.329Z,1.30
2023-02-11T02:59:58.040Z,1.33
2023-02-11T03:01:08.471Z,1.34
2023-02-11T03:02:12.797Z,1.29
2023-02-11T03:03:34.800Z,1.28
2023-02-11T03:04:40.421Z,1.28
2023-02-11T03:05:49.827Z,1.31
2023-02-11T03:06:58.604Z,1.30
2023-02-11T03:08:06.013Z,1.32
2023-02-11T03:09:12.331Z,1.31
2023-02-11T03:10:31.076Z,1.41
2023-02-11T03:11:32.623Z,1.50
2023-02-11T03:12:34.216Z,1.47
2023-02-11T03:13:36.670Z,1.51
2023-02-11T03:14:38.149Z,1.47
2023-02-11T03:15:42.226Z,1.57
2023-02-11T03:16:43.856Z,1.60
2023-02-11T03:17:47.247Z,1.64
2023-02-11T03:18:51.269Z,1.76
2023-02-11T03:19:52.802Z,1.88
2023-02-11T03:20:54.450Z,1.98
2023-02-11T03:21:57.272Z,1.84
2023-02-11T03:23:04.951Z,1.71
2023-02-11T03:24:09.097Z,1.84
2023-02-11T03:25:10.596Z,1.83
2023-02-11T03:26:21.029Z,1.89
2023-02-11T03:27:33.403Z,2.01
2023-02-11T03:28:36.671Z,2.19
2023-02-11T03:30:07.964Z,2.25
2023-02-11T03:31:22.411Z,2.36
2023-02-11T03:32:29.188Z,2.35
2023-02-11T03:34:02.376Z,2.43
2023-02-11T03:35:18.001Z,2.43
2023-02-11T03:36:23.566Z,2.22
2023-02-11T03:37:30.665Z,2.07
2023-02-11T03:38:34.485Z,1.94
2023-02-11T03:39:41.215Z,1.93
2023-02-11T03:40:42.990Z,2.09
2023-02-11T03:41:44.550Z,2.16
2023-02-11T03:42:52.291Z,2.00
2023-02-11T03:43:56.003Z,2.08
2023-02-11T03:45:01.813Z,2.12
2023-02-11T03:46:03.499Z,1.99
2023-02-11T03:47:05.534Z,1.94
2023-02-11T03:48:14.324Z,2.02
2023-02-11T03:49:16.956Z,2.23
2023-02-11T03:50:18.470Z,2.29
2023-02-11T03:51:20.186Z,2.37
2023-02-11T03:52:22.368Z,2.43
2023-02-11T03:53:24.050Z,2.53
2023-02-11T03:54:29.240Z,2.48
2023-02-11T03:55:30.784Z,2.59
2023-02-11T03:56:33.852Z,2.56
2023-02-11T03:57:35.325Z,2.62
2023-02-11T03:58:36.845Z,2.61
2023-02-11T03:59:51.565Z,2.71
2023-02-11T04:00:53.119Z,2.72
2023-02-11T04:01:54.781Z,2.65
2023-02-11T04:02:56.286Z,2.62
2023-02-11T04:03:57.817Z,2.60
2023-02-11T04:04:59.357Z,2.53
2023-02-11T04:06:00.896Z,2.50
2023-02-11T04:07:02.440Z,2.43
2023-02-11T04:08:04.128Z,2.40
2023-02-11T04:09:05.702Z,2.31
2023-02-11T04:10:07.627Z,2.38
2023-02-11T04:11:09.287Z,2.33
2023-02-11T04:12:10.790Z,2.27
2023-02-11T04:13:12.331Z,1.68
2023-02-11T04:14:13.824Z,1.37
2023-02-11T04:15:15.586Z,1.65
2023-02-11T04:16:17.133Z,1.88
2023-02-11T04:17:18.644Z,2.00
2023-02-11T04:18:20.125Z,2.05
2023-02-11T04:19:21.632Z,2.12
2023-02-11T04:20:23.179Z,2.26
2023-02-11T04:21:24.693Z,2.38
2023-02-11T04:22:26.214Z,2.35
2023-02-11T04:23:27.819Z,2.43
2023-02-11T04:24:29.389Z,2.54
2023-02-11T04:25:30.997Z,2.63
2023-02-11T04:26:32.527Z,2.40
2023-02-11T04:27:34.076Z,2.51
2023-02-11T04:28:36.891Z,2.61
2023-02-11T04:29:38.545Z,2.70
2023-02-11T04:30:40.071Z,2.77
2023-02-11T04:31:41.657Z,2.71
2023-02-11T04:32:43.182Z,2.64
2023-02-11T04:33:44.724Z,2.67
2023-02-11T04:34:46.271Z,2.76
2023-02-11T04:35:47.954Z,2.86
2023-02-11T04:36:49.653Z,2.94
2023-02-11T04:37:51.233Z,3.02
2023-02-11T04:38:52.736Z,3.02
2023-02-11T04:39:54.243Z,3.00
2023-02-11T04:40:55.759Z,3.00
2023-02-11T04:41:57.269Z,2.84
2023-02-11T04:42:58.739Z,2.80
2023-02-11T04:44:00.250Z,2.78
2023-02-11T04:45:01.926Z,2.78
2023-02-11T04:46:03.520Z,2.79
2023-02-11T04:47:05.122Z,2.81
2023-02-11T04:48:06.704Z,2.88
2023-02-11T04:49:08.236Z,2.95
2023-02-11T04:50:09.883Z,2.96
2023-02-11T04:51:11.467Z,3.03
2023-02-11T04:52:12.991Z,3.04
2023-02-11T04:53:14.511Z,3.11
2023-02-11T04:54:16.148Z,3.08
2023-02-11T04:55:17.749Z,3.14
2023-02-11T04:56:19.257Z,3.10
2023-02-11T04:57:20.776Z,3.15
2023-02-11T04:58:22.316Z,3.12
2023-02-11T04:59:23.820Z,3.12
2023-02-11T05:00:25.359Z,3.12
2023-02-11T05:01:27.090Z,3.14
2023-02-11T05:02:28.647Z,3.09
2023-02-11T05:03:30.290Z,2.96
2023-02-11T05:04:31.885Z,2.95
2023-02-11T05:05:33.470Z,2.95
2023-02-11T05:06:34.998Z,2.88
2023-02-11T05:07:36.545Z,2.84
2023-02-11T05:08:38.135Z,2.85
2023-02-11T05:09:39.679Z,2.85
2023-02-11T05:10:41.264Z,2.86
2023-02-11T05:11:43.152Z,2.88
2023-02-11T05:12:44.727Z,2.89
2023-02-11T05:13:46.533Z,2.93
2023-02-11T05:14:48.076Z,2.80
2023-02-11T05:15:50.108Z,2.76
2023-02-11T05:16:52.031Z,2.81
2023-02-11T05:17:53.785Z,2.82
2023-02-11T05:18:55.827Z,2.87
2023-02-11T05:19:57.398Z,2.80
2023-02-11T05:20:58.950Z,2.82
2023-02-11T05:22:03.472Z,2.95
2023-02-11T05:23:05.223Z,3.05
2023-02-11T05:24:07.277Z,3.16
2023-02-11T05:25:08.787Z,3.15
2023-02-11T05:26:10.942Z,3.12
2023-02-11T05:27:13.028Z,2.99
2023-02-11T05:28:14.619Z,2.95
2023-02-11T05:29:16.149Z,3.11
2023-02-11T05:30:17.744Z,3.08
2023-02-11T05:31:19.370Z,3.07
2023-02-11T05:32:21.468Z,3.05
2023-02-11T05:33:23.439Z,2.88
2023-02-11T05:34:26.874Z,2.81
2023-02-11T05:35:28.510Z,2.94
2023-02-11T05:36:33.286Z,3.04
2023-02-11T05:37:35.380Z,3.08
2023-02-11T05:38:37.194Z,3.19
2023-02-11T05:39:41.668Z,3.26
2023-02-11T05:40:43.185Z,3.42
2023-02-11T05:41:44.689Z,3.44
2023-02-11T05:42:46.294Z,3.40
2023-02-11T05:43:53.733Z,3.18
2023-02-11T05:44:55.433Z,3.10
2023-02-11T05:45:57.439Z,3.01
2023-02-11T05:46:59.328Z,3.06
2023-02-11T05:48:00.810Z,3.11
2023-02-11T05:49:02.330Z,3.05
2023-02-11T05:50:03.969Z,3.23
2023-02-11T05:51:05.560Z,3.16
2023-02-11T05:52:10.015Z,3.24
2023-02-11T05:53:11.655Z,3.37
2023-02-11T05:54:13.354Z,3.33
2023-02-11T05:55:14.874Z,3.24
2023-02-11T05:56:16.440Z,3.34
2023-02-11T05:57:17.937Z,3.44
2023-02-11T05:58:19.420Z,3.51
2023-02-11T05:59:20.938Z,3.54
2023-02-11T06:00:22.508Z,3.23
2023-02-11T06:01:24.045Z,3.35
2023-02-11T06:02:25.617Z,3.31
2023-02-11T06:03:27.260Z,3.25
2023-02-11T06:04:31.189Z,3.37
2023-02-11T06:05:32.731Z,3.48
2023-02-11T06:06:34.277Z,3.56
2023-02-11T06:07:35.888Z,3.61
2023-02-11T06:08:39.307Z,3.61
2023-02-11T06:09:40.994Z,3.60
2023-02-11T06:10:45.273Z,3.58
2023-02-11T06:11:46.801Z,3.48
2023-02-11T06:12:48.609Z,3.38
2023-02-11T06:13:50.875Z,3.44
2023-02-11T06:14:52.537Z,3.49
2023-02-11T06:15:58.037Z,3.46
2023-02-11T06:17:02.610Z,3.43
2023-02-11T06:18:04.313Z,3.41
2023-02-11T06:19:05.875Z,3.44
2023-02-11T06:20:08.650Z,3.41
2023-02-11T06:21:11.414Z,3.31
2023-02-11T06:22:13.186Z,3.32
2023-02-11T06:23:15.246Z,3.43
2023-02-11T06:24:28.515Z,3.43
2023-02-11T06:25:38.518Z,3.53
2023-02-11T06:26:40.018Z,3.41
2023-02-11T06:27:41.813Z,3.32
2023-02-11T06:28:43.531Z,3.36
2023-02-11T06:29:45.838Z,3.41
2023-02-11T06:30:47.391Z,3.47
2023-02-11T06:31:48.999Z,3.44
2023-02-11T06:32:51.693Z,3.31
2023-02-11T06:33:55.031Z,3.26
2023-02-11T06:34:57.028Z,3.15
2023-02-11T06:35:58.550Z,3.25
2023-02-11T06:37:00.149Z,3.33
2023-02-11T06:38:02.169Z,3.37
2023-02-11T06:39:03.803Z,3.30
2023-02-11T06:40:06.241Z,3.16
2023-02-11T06:41:10.317Z,2.72
2023-02-11T06:42:11.822Z,2.25
2023-02-11T06:43:13.811Z,2.23
2023-02-11T06:44:15.308Z,2.51
2023-02-11T06:45:16.914Z,2.60
2023-02-11T06:46:18.529Z,2.55
2023-02-11T06:47:20.095Z,2.65
2023-02-11T06:48:22.255Z,2.72
2023-02-11T06:49:23.782Z,2.79
2023-02-11T06:50:25.856Z,2.96
2023-02-11T06:51:28.352Z,2.98
2023-02-11T06:52:29.870Z,2.99
2023-02-11T06:53:32.203Z,2.97
2023-02-11T06:54:33.753Z,2.90
2023-02-11T06:55:35.405Z,2.84
2023-02-11T06:56:39.638Z,2.74
2023-02-11T06:57:41.176Z,2.80
2023-02-11T06:58:42.834Z,2.80
2023-02-11T06:59:44.382Z,2.81
2023-02-11T07:00:46.118Z,2.86
2023-02-11T07:01:47.765Z,2.98
2023-02-11T07:02:49.894Z,3.03
2023-02-11T07:03:52.103Z,2.76
2023-02-11T07:04:53.890Z,2.37
2023-02-11T07:05:55.386Z,1.87
2023-02-11T07:06:56.891Z,1.06
2023-02-11T07:07:58.382Z,0.46
2023-02-11T07:09:00.509Z,0.35
2023-02-11T07:10:04.067Z,0.85
2023-02-11T07:11:10.254Z,1.02
2023-02-11T07:12:11.763Z,1.29
2023-02-11T07:13:13.300Z,0.78
2023-02-11T07:14:15.402Z,0.96
2023-02-11T07:15:16.904Z,1.33
2023-02-11T07:16:18.691Z,1.70
2023-02-11T07:17:20.280Z,1.97
2023-02-11T07:18:21.771Z,2.16
2023-02-11T07:19:23.296Z,2.34
2023-02-11T07:20:25.133Z,2.42
2023-02-11T07:21:26.690Z,2.42
2023-02-11T07:22:28.188Z,2.49
2023-02-11T07:23:29.732Z,2.65
2023-02-11T07:24:31.727Z,2.74
2023-02-11T07:25:33.326Z,2.82
2023-02-11T07:26:34.895Z,2.76
2023-02-11T07:27:36.483Z,2.83
2023-02-11T07:28:38.230Z,2.95
2023-02-11T07:29:39.977Z,2.87
2023-02-11T07:30:41.510Z,3.09
2023-02-11T07:31:43.228Z,3.14
2023-02-11T07:32:44.891Z,3.14
2023-02-11T07:33:46.499Z,3.11
2023-02-11T07:34:48.638Z,3.28
2023-02-11T07:35:50.421Z,3.43
2023-02-11T07:36:52.100Z,3.41
2023-02-11T07:37:53.727Z,3.52
2023-02-11T07:38:55.708Z,3.54
2023-02-11T07:39:57.252Z,3.56
2023-02-11T07:41:02.406Z,2.93
2023-02-11T07:42:04.358Z,3.11
2023-02-11T07:43:05.948Z,3.01
2023-02-11T07:44:07.980Z,3.30
2023-02-11T07:45:09.737Z,3.46
2023-02-11T07:46:13.558Z,3.55
2023-02-11T07:47:15.098Z,3.79
2023-02-11T07:48:16.907Z,3.94
2023-02-11T07:49:18.516Z,4.00
2023-02-11T07:50:19.995Z,4.10
2023-02-11T07:51:28.646Z,4.12
2023-02-11T07:52:30.943Z,4.30
2023-02-11T07:53:32.467Z,4.31
2023-02-11T07:54:33.944Z,4.43
2023-02-11T07:55:35.546Z,4.46
2023-02-11T07:56:37.092Z,4.38
2023-02-11T07:57:38.790Z,4.30
2023-02-11T07:58:42.700Z,4.35
2023-02-11T07:59:44.346Z,4.39
2023-02-11T08:00:46.045Z,4.37
2023-02-11T08:01:47.671Z,4.49
2023-02-11T08:02:49.366Z,4.57
2023-02-11T08:03:51.161Z,4.64
2023-02-11T08:04:52.930Z,4.75
2023-02-11T08:05:54.410Z,4.81
2023-02-11T08:06:59.011Z,4.88
2023-02-11T08:08:00.668Z,4.80
2023-02-11T08:09:07.341Z,4.66
2023-02-11T08:10:08.973Z,4.66
2023-02-11T08:11:23.336Z,4.64
2023-02-11T08:12:24.849Z,4.71
2023-02-11T08:13:27.018Z,4.67
2023-02-11T08:14:28.976Z,4.75
2023-02-11T08:15:30.468Z,4.80
2023-02-11T08:16:33.549Z,4.75
2023-02-11T08:17:36.078Z,4.80
2023-02-11T08:18:37.651Z,4.85
2023-02-11T08:19:39.563Z,4.90
2023-02-11T08:20:41.090Z,4.95
2023-02-11T08:21:43.006Z,4.91
2023-02-11T08:22:44.546Z,5.02
2023-02-11T08:23:46.102Z,5.06
2023-02-11T08:24:49.577Z,5.11
2023-02-11T08:25:52.188Z,4.91
2023-02-11T08:26:53.687Z,4.64
2023-02-11T08:27:55.249Z,4.80
2023-02-11T08:28:56.970Z,4.93
2023-02-11T08:30:00.229Z,4.99
2023-02-11T08:31:08.429Z,4.91
2023-02-11T08:32:10.004Z,5.06
2023-02-11T08:33:11.602Z,5.14
2023-02-11T08:34:14.621Z,5.19
2023-02-11T08:35:16.204Z,5.23
2023-02-11T08:36:22.360Z,5.02
2023-02-11T08:37:24.091Z,5.03
2023-02-11T08:38:25.623Z,5.18
2023-02-11T08:39:27.567Z,5.27
2023-02-11T08:40:29.199Z,5.35
2023-02-11T08:41:31.803Z,5.30
2023-02-11T08:42:33.305Z,5.27
2023-02-11T08:43:35.508Z,5.25
2023-02-11T08:44:37.363Z,5.46
2023-02-11T08:45:39.084Z,5.52
2023-02-11T08:46:40.629Z,5.54
2023-02-11T08:47:42.117Z,5.62
2023-02-11T08:48:44.725Z,5.74
2023-02-11T08:49:46.285Z,5.74
2023-02-11T08:50:47.831Z,5.77
2023-02-11T08:51:49.517Z,5.69
2023-02-11T08:52:52.437Z,5.85
2023-02-11T08:53:54.076Z,6.30
2023-02-11T08:54:55.946Z,6.24
2023-02-11T08:55:57.437Z,6.25
2023-02-11T08:56:58.979Z,6.22
2023-02-11T08:58:00.487Z,6.19
2023-02-11T08:59:02.420Z,6.03
2023-02-11T09:00:05.281Z,6.18
2023-02-11T09:01:14.377Z,6.27
2023-02-11T09:02:15.835Z,6.34
2023-02-11T09:03:17.225Z,6.53
2023-02-11T09:04:18.836Z,6.38
2023-02-11T09:05:20.502Z,6.17
2023-02-11T09:06:22.565Z,6.18
2023-02-11T09:07:24.147Z,6.14
2023-02-11T09:08:25.732Z,6.22
2023-02-11T09:09:27.337Z,6.23
2023-02-11T09:10:29.319Z,6.38
2023-02-11T09:11:34.937Z,6.47
2023-02-11T09:12:36.439Z,6.41
2023-02-11T09:13:38.114Z,6.39
2023-02-11T09:14:39.902Z,6.31
2023-02-11T09:15:41.579Z,6.35
2023-02-11T09:16:43.143Z,6.60
2023-02-11T09:17:44.671Z,6.51
2023-02-11T09:18:46.322Z,6.71
2023-02-11T09:19:47.920Z,6.86
2023-02-11T09:20:49.656Z,6.62
2023-02-11T09:21:51.527Z,6.59
2023-02-11T09:22:53.755Z,6.71
2023-02-11T09:23:55.297Z,6.86
2023-02-11T09:24:57.191Z,6.92
2023-02-11T09:25:58.804Z,6.78
2023-02-11T09:27:00.328Z,6.66
2023-02-11T09:28:01.978Z,6.64
2023-02-11T09:29:03.965Z,6.73
2023-02-11T09:30:06.280Z,6.83
2023-02-11T09:31:08.800Z,6.93
2023-02-11T09:32:10.493Z,7.08
2023-02-11T09:33:12.070Z,7.19
2023-02-11T09:34:13.686Z,7.33
2023-02-11T09:35:15.582Z,7.50
2023-02-11T09:36:28.698Z,7.65
2023-02-11T09:37:30.243Z,7.71
2023-02-11T09:38:32.033Z,7.61
2023-02-11T09:39:33.720Z,7.68
2023-02-11T09:40:35.265Z,7.81
2023-02-11T09:42:07.111Z,8.01
2023-02-11T09:43:14.711Z,8.02
2023-02-11T09:44:23.990Z,7.78
2023-02-11T09:45:27.241Z,7.83
2023-02-11T09:46:32.704Z,7.85
2023-02-11T09:47:35.716Z,7.89
2023-02-11T09:48:38.632Z,8.30
2023-02-11T09:49:43.381Z,8.23
2023-02-11T09:50:54.453Z,8.16
2023-02-11T09:51:59.225Z,8.14
2023-02-11T09:53:06.913Z,8.20
2023-02-11T09:54:31.612Z,8.32
2023-02-11T09:55:43.095Z,8.14
2023-02-11T09:56:44.626Z,8.18
2023-02-11T09:57:46.271Z,8.07
2023-02-11T09:58:47.750Z,8.15
2023-02-11T09:59:49.424Z,8.17
2023-02-11T10:01:05.742Z,8.23
2023-02-11T10:02:19.357Z,8.35
2023-02-11T10:03:44.677Z,8.46
2023-02-11T10:04:51.761Z,8.46
2023-02-11T10:06:20.217Z,8.28
2023-02-11T10:07:29.826Z,8.07
2023-02-11T10:08:49.314Z,7.90
2023-02-11T10:10:03.777Z,7.91
2023-02-11T10:11:22.667Z,7.97
2023-02-11T10:12:31.213Z,7.95
2023-02-11T10:13:54.923Z,7.88
2023-02-11T10:14:59.203Z,8.13
2023-02-11T10:16:33.517Z,7.99
2023-02-11T10:17:49.923Z,8.05
2023-02-11T10:19:19.924Z,8.15
2023-02-11T10:20:34.730Z,8.29
2023-02-11T10:21:44.000Z,8.51
2023-02-11T10:22:55.666Z,8.61
2023-02-11T10:23:59.595Z,8.65
2023-02-11T10:25:01.536Z,8.80
2023-02-11T10:26:03.116Z,8.80
2023-02-11T10:27:12.599Z,8.81
2023-02-11T10:28:18.955Z,8.85
2023-02-11T10:29:33.915Z,8.94
2023-02-11T10:30:41.207Z,9.02
2023-02-11T10:31:43.342Z,9.13
2023-02-11T10:33:05.155Z,9.06
2023-02-11T10:34:10.909Z,9.13
2023-02-11T10:35:21.711Z,9.11
2023-02-11T10:36:26.358Z,9.01
2023-02-11T10:37:27.891Z,8.99
2023-02-11T10:38:29.436Z,8.92
2023-02-11T10:39:32.063Z,8.92
2023-02-11T10:40:33.841Z,9.09
2023-02-11T10:41:37.038Z,9.07
2023-02-11T10:42:39.495Z,9.10
2023-02-11T10:43:41.083Z,9.11
2023-02-11T10:44:59.101Z,9.22
2023-02-11T10:46:00.985Z,9.20
2023-02-11T10:47:05.962Z,9.03
2023-02-11T10:48:37.613Z,9.13
2023-02-11T10:49:39.756Z,9.20
2023-02-11T10:50:41.321Z,9.16
2023-02-11T10:51:42.900Z,9.15
2023-02-11T10:52:44.763Z,9.15
2023-02-11T10:53:47.481Z,9.06
2023-02-11T10:55:03.842Z,9.10
2023-02-11T10:56:11.037Z,9.17
2023-02-11T10:57:19.156Z,9.13
2023-02-11T10:58:31.224Z,9.16
2023-02-11T10:59:40.474Z,9.28
2023-02-11T11:00:42.829Z,9.23
2023-02-11T11:01:49.121Z,9.10
2023-02-11T11:02:55.969Z,9.04
2023-02-11T11:03:59.958Z,9.12
2023-02-11T11:05:19.155Z,9.04
2023-02-11T11:06:31.530Z,9.14
2023-02-11T11:07:34.018Z,9.22
2023-02-11T11:08:49.657Z,9.19
2023-02-11T11:09:55.547Z,9.24
2023-02-11T11:11:23.334Z,9.36
2023-02-11T11:12:45.284Z,9.39
2023-02-11T11:13:52.672Z,9.41
2023-02-11T11:15:16.504Z,9.47
2023-02-11T11:16:34.942Z,9.53
2023-02-11T11:17:37.404Z,9.45
2023-02-11T11:18:39.759Z,9.39
2023-02-11T11:19:41.293Z,9.37
2023-02-11T11:21:04.118Z,9.46
2023-02-11T11:22:05.611Z,9.43
2023-02-11T11:23:27.501Z,9.39
2023-02-11T11:24:53.455Z,9.29
2023-02-11T11:26:13.694Z,9.42
2023-02-11T11:27:19.601Z,9.42
2023-02-11T11:28:25.284Z,9.50
2023-02-11T11:29:40.920Z,9.50
2023-02-11T11:30:42.864Z,9.57
2023-02-11T11:31:52.859Z,9.55
2023-02-11T11:32:54.714Z,9.60
2023-02-11T11:33:57.354Z,9.55
2023-02-11T11:35:00.790Z,9.52
2023-02-11T11:36:08.029Z,9.48
2023-02-11T11:37:27.113Z,9.46
2023-02-11T11:38:29.156Z,9.51
2023-02-11T11:39:32.150Z,9.45
2023-02-11T11:40:34.242Z,9.81
2023-02-11T11:41:35.828Z,9.74
2023-02-11T11:42:38.808Z,9.49
2023-02-11T11:43:40.381Z,9.89
2023-02-11T11:44:41.894Z,9.76
2023-02-11T11:45:56.536Z,9.61
2023-02-11T11:47:16.570Z,9.59
2023-02-11T11:48:35.405Z,9.58
2023-02-11T11:49:58.136Z,9.56
2023-02-11T11:51:05.308Z,9.64
2023-02-11T11:52:06.693Z,9.65
2023-02-11T11:53:16.848Z,9.58
2023-02-11T11:54:18.435Z,9.59
2023-02-11T11:55:22.187Z,9.56
2023-02-11T11:56:29.209Z,9.67
2023-02-11T11:57:31.040Z,9.66
2023-02-11T11:58:33.523Z,9.62
2023-02-11T11:59:35.140Z,9.67
2023-02-11T12:00:58.852Z,9.69
2023-02-11T12:02:08.459Z,9.77
2023-02-11T12:03:22.648Z,9.74
2023-02-11T12:04:38.652Z,9.66
2023-02-11T12:06:09.694Z,9.82
2023-02-11T12:07:17.705Z,9.76
2023-02-11T12:08:38.577Z,9.67
2023-02-11T12:10:15.330Z,9.80
2023-02-11T12:11:21.688Z,9.71
2023-02-11T12:12:42.241Z,9.77
2023-02-11T12:14:04.514Z,9.82
2023-02-11T12:15:09.107Z,9.83
2023-02-11T12:16:24.775Z,9.68
2023-02-11T12:17:53.408Z,9.77
2023-02-11T12:19:14.262Z,9.85
2023-02-11T12:20:32.875Z,9.85
2023-02-11T12:21:46.253Z,9.75
2023-02-11T12:22:53.716Z,9.73
2023-02-11T12:24:24.143Z,9.70
2023-02-11T12:25:29.267Z,9.77
2023-02-11T12:27:08.194Z,9.70
2023-02-11T12:28:39.049Z,9.80
2023-02-11T12:30:02.393Z,9.69
2023-02-11T12:31:28.067Z,9.69
2023-02-11T12:32:51.156Z,9.75
2023-02-11T12:34:07.747Z,9.77
2023-02-11T12:35:15.369Z,9.77
2023-02-11T12:37:01.361Z,9.82
2023-02-11T12:38:26.548Z,9.70
2023-02-11T12:39:36.362Z,9.60
2023-02-11T12:41:03.850Z,9.75
2023-02-11T12:42:36.296Z,9.82
2023-02-11T12:43:39.270Z,9.89
2023-02-11T12:44:57.206Z,10.06
2023-02-11T12:46:20.899Z,9.64
2023-02-11T12:48:00.356Z,9.59
2023-02-11T12:49:23.794Z,9.55
2023-02-11T12:50:41.158Z,9.55
2023-02-11T12:52:07.324Z,9.65
2023-02-11T12:53:46.474Z,9.60
2023-02-11T12:55:10.237Z,9.60
2023-02-11T12:56:16.340Z,9.58
2023-02-11T12:57:36.333Z,9.46
2023-02-11T12:58:44.964Z,9.07
2023-02-11T13:00:07.922Z,9.06
2023-02-11T13:01:24.729Z,9.28
2023-02-11T13:03:11.238Z,9.50
2023-02-11T13:04:14.619Z,9.64
2023-02-11T13:05:26.945Z,9.62
2023-02-11T13:06:37.046Z,9.64
2023-02-11T13:07:43.696Z,9.64
2023-02-11T13:08:54.966Z,9.55
2023-02-11T13:10:00.127Z,9.57
2023-02-11T13:11:14.353Z,9.61
2023-02-11T13:12:34.557Z,9.69
2023-02-11T13:13:56.332Z,9.69
2023-02-11T13:15:00.764Z,9.85
2023-02-11T13:16:09.691Z,9.74
2023-02-11T13:17:22.194Z,9.77
2023-02-11T13:18:40.154Z,9.66
2023-02-11T13:19:45.617Z,9.78
2023-02-11T13:20:54.278Z,9.82
2023-02-11T13:22:17.325Z,9.94
2023-02-11T13:23:43.634Z,9.94
2023-02-11T13:24:49.330Z,9.91
2023-02-11T13:25:55.685Z,9.80
2023-02-11T13:27:31.448Z,9.96
2023-02-11T13:28:40.166Z,9.81
2023-02-11T13:29:58.396Z,9.76
2023-02-11T13:31:03.370Z,9.81
2023-02-11T13:32:14.883Z,9.60
2023-02-11T13:33:19.101Z,8.98
2023-02-11T13:34:46.422Z,9.10
2023-02-11T13:35:51.194Z,9.32
2023-02-11T13:36:56.651Z,9.41
2023-02-11T13:38:21.758Z,9.53
2023-02-11T13:39:23.391Z,9.49
2023-02-11T13:40:35.099Z,9.57
2023-02-11T13:41:40.675Z,9.64
2023-02-11T13:42:49.968Z,9.49
2023-02-11T13:44:11.967Z,9.37
2023-02-11T13:45:36.212Z,9.44
2023-02-11T13:46:57.799Z,9.46
2023-02-11T13:47:59.747Z,9.67
2023-02-11T13:49:01.289Z,9.64
2023-02-11T13:50:04.057Z,9.44
2023-02-11T13:51:08.968Z,9.47
2023-02-11T13:52:29.693Z,9.53
2023-02-11T13:53:48.565Z,9.66
2023-02-11T13:54:51.316Z,9.76
2023-02-11T13:55:54.620Z,9.50
2023-02-11T13:57:21.078Z,9.37
2023-02-11T13:58:28.387Z,9.42
2023-02-11T13:59:32.971Z,9.51
2023-02-11T14:00:34.499Z,9.49
2023-02-11T14:02:14.044Z,9.52
2023-02-11T14:03:41.176Z,9.60
2023-02-11T14:05:20.470Z,9.74
2023-02-11T14:07:05.215Z,9.84
2023-02-11T14:08:25.606Z,9.86
2023-02-11T14:09:35.480Z,9.78
2023-02-11T14:10:42.721Z,9.77
2023-02-11T14:11:51.313Z,9.68
2023-02-11T14:13:30.253Z,9.73
2023-02-11T14:14:33.495Z,9.83
2023-02-11T14:15:40.789Z,9.72
2023-02-11T14:17:00.808Z,9.75
2023-02-11T14:18:02.579Z,9.82
2023-02-11T14:19:04.251Z,9.77
2023-02-11T14:20:56.243Z,9.86
2023-02-11T14:22:23.681Z,9.88
2023-02-11T14:23:27.352Z,9.87
2023-02-11T14:24:28.784Z,9.77
2023-02-11T14:25:30.287Z,9.67
2023-02-11T14:26:50.111Z,9.65
2023-02-11T14:27:57.581Z,9.69
2023-02-11T14:29:20.172Z,9.72
2023-02-11T14:30:32.738Z,9.82
2023-02-11T14:31:39.070Z,9.80
2023-02-11T14:33:05.245Z,9.77
2023-02-11T14:34:23.501Z,9.75
2023-02-11T14:35:44.944Z,9.82
2023-02-11T14:37:15.357Z,10.11
2023-02-11T14:38:36.212Z,10.00
2023-02-11T14:39:41.220Z,9.92
2023-02-11T14:40:55.131Z,9.80
2023-02-11T14:41:56.610Z,9.97
2023-02-11T14:43:02.069Z,9.95
2023-02-11T14:44:08.774Z,9.93
2023-02-11T14:45:14.219Z,10.01
2023-02-11T14:46:16.714Z,9.90
2023-02-11T14:47:30.482Z,9.89
2023-02-11T14:48:35.197Z,9.91